createdAt,value
2022-09-29T00:00:59.760Z,0.00
2022-09-29T00:01:59.847Z,0.00
2022-09-29T00:02:59.793Z,0.00
2022-09-29T00:03:59.743Z,0.00
2022-09-29T00:04:59.754Z,0.00
2022-09-29T00:05:59.746Z,0.00
2022-09-29T00:06:59.736Z,0.00
2022-09-29T00:07:59.737Z,0.00
2022-09-29T00:08:59.743Z,0.00
2022-09-29T00:09:59.714Z,0.00
2022-09-29T00:10:59.733Z,0.00
2022-09-29T00:11:59.717Z,0.00
2022-09-29T00:12:59.719Z,0.00
2022-09-29T00:13:59.697Z,0.00
2022-09-29T00:14:59.731Z,0.00
2022-09-29T00:15:59.737Z,0.00
2022-09-29T00:16:59.691Z,0.00
2022-09-29T00:18:13.131Z,0.00
2022-09-29T00:18:59.673Z,0.00
2022-09-29T00:19:59.676Z,0.00
2022-09-29T00:20:59.687Z,0.00
2022-09-29T00:21:59.657Z,0.00
2022-09-29T00:22:59.665Z,0.00
2022-09-29T00:23:59.681Z,0.00
2022-09-29T00:24:59.710Z,0.00
2022-09-29T00:25:59.638Z,0.00
2022-09-29T00:26:59.640Z,0.00
2022-09-29T00:27:59.638Z,0.00
2022-09-29T00:28:59.622Z,0.00
2022-09-29T00:29:59.624Z,0.00
2022-09-29T00:30:59.625Z,0.00
2022-09-29T00:31:59.657Z,0.00
2022-09-29T00:32:59.608Z,0.00
2022-09-29T00:33:59.631Z,0.00
2022-09-29T00:34:59.591Z,0.00
2022-09-29T00:35:59.585Z,0.00
2022-09-29T00:36:59.582Z,0.00
2022-09-29T00:37:59.581Z,0.00
2022-09-29T00:38:59.591Z,0.00
2022-09-29T00:40:00.200Z,0.00
2022-09-29T00:40:59.601Z,0.00
2022-09-29T00:41:59.569Z,0.00
2022-09-29T00:42:59.570Z,0.00
2022-09-29T00:43:59.548Z,0.00
2022-09-29T00:44:59.545Z,0.00
2022-09-29T00:45:59.617Z,0.00
2022-09-29T00:46:59.536Z,0.00
2022-09-29T00:47:59.540Z,0.00
2022-09-29T00:48:59.526Z,0.00
2022-09-29T00:49:59.533Z,0.00
2022-09-29T00:50:59.513Z,0.00
2022-09-29T00:51:59.539Z,0.00
2022-09-29T00:52:59.504Z,0.00
2022-09-29T00:53:59.500Z,0.00
2022-09-29T00:54:59.509Z,0.00
2022-09-29T00:55:59.486Z,0.00
2022-09-29T00:56:59.484Z,0.00
2022-09-29T00:57:59.537Z,0.00
2022-09-29T00:58:59.475Z,0.00
2022-09-29T00:59:59.487Z,0.00
2022-09-29T01:00:59.547Z,0.00
2022-09-29T01:01:59.491Z,0.00
2022-09-29T01:02:59.459Z,0.00
2022-09-29T01:03:59.452Z,0.00
2022-09-29T01:04:59.454Z,0.00
2022-09-29T01:05:59.453Z,0.00
2022-09-29T01:06:59.434Z,0.00
2022-09-29T01:07:59.450Z,0.00
2022-09-29T01:08:59.429Z,0.00
2022-09-29T01:09:59.431Z,0.00
2022-09-29T01:10:59.418Z,0.00
2022-09-29T01:11:59.406Z,0.00
2022-09-29T01:12:59.405Z,0.00
2022-09-29T01:13:59.399Z,0.00
2022-09-29T01:14:59.401Z,0.00
2022-09-29T01:15:59.453Z,0.00
2022-09-29T01:16:59.388Z,0.00
2022-09-29T01:17:59.383Z,0.00
2022-09-29T01:18:59.371Z,0.00
2022-09-29T01:20:04.027Z,0.00
2022-09-29T01:20:59.373Z,0.00
2022-09-29T01:21:59.364Z,0.00
2022-09-29T01:22:59.360Z,0.00
2022-09-29T01:23:59.352Z,0.00
2022-09-29T01:24:59.343Z,0.00
2022-09-29T01:25:59.337Z,0.00
2022-09-29T01:26:59.337Z,0.00
2022-09-29T01:27:59.331Z,0.00
2022-09-29T01:28:59.322Z,0.00
2022-09-29T01:29:59.334Z,0.00
2022-09-29T01:30:59.317Z,0.00
2022-09-29T01:31:59.303Z,0.00
2022-09-29T01:32:59.315Z,0.00
2022-09-29T01:33:59.308Z,0.00
2022-09-29T01:34:59.308Z,0.00
2022-09-29T01:35:59.319Z,0.00
2022-09-29T01:36:59.278Z,0.00
2022-09-29T01:37:59.313Z,0.00
2022-09-29T01:38:59.278Z,0.00
2022-09-29T01:39:59.265Z,0.00
2022-09-29T01:40:59.384Z,0.00
2022-09-29T01:41:59.281Z,0.00
2022-09-29T01:42:59.351Z,0.00
2022-09-29T01:43:59.250Z,0.00
2022-09-29T01:44:59.264Z,0.00
2022-09-29T01:45:59.380Z,0.00
2022-09-29T01:46:59.228Z,0.00
2022-09-29T01:47:59.263Z,0.00
2022-09-29T01:48:59.228Z,0.00
2022-09-29T01:49:59.233Z,0.00
2022-09-29T01:50:59.217Z,0.00
2022-09-29T01:51:59.216Z,0.00
2022-09-29T01:52:59.199Z,0.00
2022-09-29T01:53:59.192Z,0.00
2022-09-29T01:54:59.197Z,0.00
2022-09-29T01:55:59.188Z,0.00
2022-09-29T01:56:59.190Z,0.00
2022-09-29T01:57:59.183Z,0.00
2022-09-29T01:58:59.168Z,0.00
2022-09-29T01:59:59.161Z,0.00
2022-09-29T02:00:59.265Z,0.00
2022-09-29T02:02:00.902Z,0.00
2022-09-29T02:02:59.153Z,0.00
2022-09-29T02:03:59.138Z,0.00
2022-09-29T02:04:59.143Z,0.00
2022-09-29T02:05:59.146Z,0.00
2022-09-29T02:06:59.155Z,0.00
2022-09-29T02:07:59.143Z,0.00
2022-09-29T02:08:59.123Z,0.00
2022-09-29T02:09:59.107Z,0.00
2022-09-29T02:10:59.117Z,0.00
2022-09-29T02:11:59.115Z,0.00
2022-09-29T02:12:59.098Z,0.00
2022-09-29T02:13:59.111Z,0.00
2022-09-29T02:14:59.207Z,0.00
2022-09-29T02:15:59.151Z,0.00
2022-09-29T02:16:59.094Z,0.00
2022-09-29T02:17:59.080Z,0.00
2022-09-29T02:18:59.072Z,0.00
2022-09-29T02:19:59.059Z,0.00
2022-09-29T02:20:59.061Z,0.00
2022-09-29T02:21:59.057Z,0.00
2022-09-29T02:22:59.045Z,0.00
2022-09-29T02:23:59.058Z,0.00
2022-09-29T02:24:59.032Z,0.00
2022-09-29T02:25:59.053Z,0.00
2022-09-29T02:26:59.021Z,0.00
2022-09-29T02:27:59.037Z,0.00
2022-09-29T02:28:59.023Z,0.00
2022-09-29T02:29:59.048Z,0.00
2022-09-29T02:30:59.021Z,0.00
2022-09-29T02:31:59.120Z,0.00
2022-09-29T02:32:58.994Z,0.00
2022-09-29T02:33:58.989Z,0.00
2022-09-29T02:34:58.995Z,0.00
2022-09-29T02:35:58.980Z,0.00
2022-09-29T02:36:58.980Z,0.00
2022-09-29T02:37:58.972Z,0.00
2022-09-29T02:38:58.970Z,0.00
2022-09-29T02:39:58.960Z,0.00
2022-09-29T02:40:58.976Z,0.00
2022-09-29T02:41:58.951Z,0.00
2022-09-29T02:42:58.937Z,0.00
2022-09-29T02:43:58.944Z,0.00
2022-09-29T02:44:58.939Z,0.00
2022-09-29T02:45:59.013Z,0.00
2022-09-29T02:46:58.928Z,0.00
2022-09-29T02:47:58.921Z,0.00
2022-09-29T02:48:58.919Z,0.00
2022-09-29T02:49:58.915Z,0.00
2022-09-29T02:50:58.905Z,0.00
2022-09-29T02:51:58.899Z,0.00
2022-09-29T02:52:58.917Z,0.00
2022-09-29T02:53:58.886Z,0.00
2022-09-29T02:54:58.878Z,0.00
2022-09-29T02:55:58.874Z,0.00
2022-09-29T02:56:58.865Z,0.00
2022-09-29T02:57:58.863Z,0.00
2022-09-29T02:58:58.871Z,0.00
2022-09-29T02:59:58.852Z,0.00
2022-09-29T03:00:58.930Z,0.00
2022-09-29T03:01:58.879Z,0.00
2022-09-29T03:02:58.842Z,0.00
2022-09-29T03:04:03.345Z,0.00
2022-09-29T03:04:58.856Z,0.00
2022-09-29T03:05:58.821Z,0.00
2022-09-29T03:06:58.821Z,0.00
2022-09-29T03:07:58.837Z,0.00
2022-09-29T03:08:58.856Z,0.00
2022-09-29T03:09:58.808Z,0.00
2022-09-29T03:10:58.943Z,0.00
2022-09-29T03:11:58.795Z,0.00
2022-09-29T03:12:58.803Z,0.00
2022-09-29T03:13:58.783Z,0.00
2022-09-29T03:14:58.783Z,0.00
2022-09-29T03:15:58.837Z,0.00
2022-09-29T03:16:58.778Z,0.00
2022-09-29T03:17:58.790Z,0.00
2022-09-29T03:18:58.797Z,0.00
2022-09-29T03:19:58.757Z,0.00
2022-09-29T03:20:58.753Z,0.00
2022-09-29T03:21:58.739Z,0.00
2022-09-29T03:22:58.753Z,0.00
2022-09-29T03:23:58.736Z,0.00
2022-09-29T03:24:58.729Z,0.00
2022-09-29T03:25:58.744Z,0.00
2022-09-29T03:26:58.735Z,0.00
2022-09-29T03:27:58.718Z,0.00
2022-09-29T03:28:58.725Z,0.00
2022-09-29T03:29:58.722Z,0.00
2022-09-29T03:30:58.821Z,0.00
2022-09-29T03:31:58.694Z,0.00
2022-09-29T03:32:58.696Z,0.00
2022-09-29T03:33:58.689Z,0.00
2022-09-29T03:34:58.684Z,0.00
2022-09-29T03:35:58.678Z,0.00
2022-09-29T03:36:58.694Z,0.00
2022-09-29T03:37:58.663Z,0.00
2022-09-29T03:38:58.656Z,0.00
2022-09-29T03:39:58.666Z,0.00
2022-09-29T03:40:58.705Z,0.00
2022-09-29T03:41:58.642Z,0.00
2022-09-29T03:42:58.678Z,0.00
2022-09-29T03:43:58.654Z,0.00
2022-09-29T03:44:58.631Z,0.00
2022-09-29T03:45:58.671Z,0.00
2022-09-29T03:46:58.621Z,0.00
2022-09-29T03:47:58.613Z,0.00
2022-09-29T03:48:58.612Z,0.00
2022-09-29T03:49:58.600Z,0.00
2022-09-29T03:50:58.606Z,0.00
2022-09-29T03:51:58.604Z,0.00
2022-09-29T03:52:58.589Z,0.00
2022-09-29T03:53:58.589Z,0.00
2022-09-29T03:54:58.589Z,0.00
2022-09-29T03:55:58.580Z,0.00
2022-09-29T03:56:58.572Z,0.00
2022-09-29T03:57:58.574Z,0.00
2022-09-29T03:58:58.555Z,0.00
2022-09-29T03:59:58.556Z,0.00
2022-09-29T04:00:58.673Z,0.00
2022-09-29T04:01:58.596Z,0.00
2022-09-29T04:02:58.545Z,0.00
2022-09-29T04:03:58.543Z,0.00
2022-09-29T04:04:58.541Z,0.00
2022-09-29T04:05:58.526Z,0.00
2022-09-29T04:06:58.536Z,0.00
2022-09-29T04:07:58.511Z,0.00
2022-09-29T04:08:58.523Z,0.00
2022-09-29T04:09:58.531Z,0.00
2022-09-29T04:10:58.506Z,0.00
2022-09-29T04:11:58.497Z,0.00
2022-09-29T04:12:58.512Z,0.00
2022-09-29T04:13:58.500Z,0.00
2022-09-29T04:14:58.492Z,0.00
2022-09-29T04:15:58.558Z,0.00
2022-09-29T04:16:58.468Z,0.00
2022-09-29T04:17:58.472Z,0.00
2022-09-29T04:18:58.479Z,0.00
2022-09-29T04:19:58.450Z,0.00
2022-09-29T04:20:58.452Z,0.00
2022-09-29T04:21:58.490Z,0.00
2022-09-29T04:22:58.459Z,0.00
2022-09-29T04:23:58.435Z,0.00
2022-09-29T04:24:58.435Z,0.00
2022-09-29T04:25:58.428Z,0.00
2022-09-29T04:26:58.415Z,0.00
2022-09-29T04:27:58.432Z,0.00
2022-09-29T04:28:58.423Z,0.00
2022-09-29T04:29:58.418Z,0.00
2022-09-29T04:30:58.411Z,0.00
2022-09-29T04:31:58.480Z,0.00
2022-09-29T04:32:58.420Z,0.00
2022-09-29T04:33:58.395Z,0.00
2022-09-29T04:34:58.420Z,0.00
2022-09-29T04:35:58.376Z,0.00
2022-09-29T04:36:58.376Z,0.00
2022-09-29T04:37:58.368Z,0.00
2022-09-29T04:38:58.359Z,0.00
2022-09-29T04:39:58.362Z,0.00
2022-09-29T04:40:58.480Z,0.00
2022-09-29T04:41:58.354Z,0.00
2022-09-29T04:42:58.363Z,0.00
2022-09-29T04:43:58.341Z,4.00
2022-09-29T04:44:58.346Z,4.00
2022-09-29T04:45:58.387Z,0.00
2022-09-29T04:46:58.319Z,4.00
2022-09-29T04:47:58.316Z,4.00
2022-09-29T04:48:58.318Z,4.00
2022-09-29T04:49:58.332Z,4.00
2022-09-29T04:50:58.301Z,4.00
2022-09-29T04:51:58.300Z,8.00
2022-09-29T04:52:58.301Z,8.00
2022-09-29T04:53:58.309Z,8.00
2022-09-29T04:54:58.297Z,8.00
2022-09-29T04:55:58.275Z,8.00
2022-09-29T04:56:58.302Z,16.00
2022-09-29T04:57:58.289Z,16.00
2022-09-29T04:58:58.283Z,20.00
2022-09-29T04:59:58.285Z,16.00
2022-09-29T05:00:58.342Z,20.00
2022-09-29T05:01:58.267Z,24.00
2022-09-29T05:02:58.256Z,28.00
2022-09-29T05:03:58.324Z,28.00
2022-09-29T05:04:58.239Z,32.00
2022-09-29T05:05:58.260Z,32.00
2022-09-29T05:06:58.212Z,36.00
2022-09-29T05:07:58.229Z,36.00
2022-09-29T05:08:58.271Z,44.00
2022-09-29T05:09:58.226Z,48.00
2022-09-29T05:10:58.200Z,52.00
2022-09-29T05:11:58.195Z,52.00
2022-09-29T05:12:58.197Z,56.00
2022-09-29T05:13:58.180Z,60.00
2022-09-29T05:14:58.180Z,64.00
2022-09-29T05:15:58.225Z,68.00
2022-09-29T05:16:58.182Z,72.00
2022-09-29T05:17:58.163Z,80.00
2022-09-29T05:18:58.175Z,80.00
2022-09-29T05:19:58.157Z,88.00
2022-09-29T05:21:16.158Z,88.00
2022-09-29T05:21:58.145Z,92.00
2022-09-29T05:22:58.142Z,100.00
2022-09-29T05:23:58.199Z,100.00
2022-09-29T05:24:58.166Z,108.00
2022-09-29T05:25:58.130Z,112.00
2022-09-29T05:26:58.714Z,120.00
2022-09-29T05:27:58.166Z,124.00
2022-09-29T05:28:58.132Z,132.00
2022-09-29T05:29:58.111Z,140.00
2022-09-29T05:30:58.133Z,144.00
2022-09-29T05:31:58.208Z,152.00
2022-09-29T05:32:59.095Z,156.00
2022-09-29T05:33:58.121Z,164.00
2022-09-29T05:34:58.079Z,172.00
2022-09-29T05:35:58.082Z,176.00
2022-09-29T05:36:58.079Z,184.00
2022-09-29T05:37:58.076Z,188.00
2022-09-29T05:38:58.063Z,200.00
2022-09-29T05:39:58.113Z,204.00
2022-09-29T05:40:58.141Z,212.00
2022-09-29T05:41:59.759Z,224.00
2022-09-29T05:42:58.044Z,236.00
2022-09-29T05:43:58.048Z,248.00
2022-09-29T05:44:58.066Z,260.00
2022-09-29T05:45:58.084Z,268.00
2022-09-29T05:46:58.018Z,280.00
2022-09-29T05:47:58.030Z,292.00
2022-09-29T05:48:58.025Z,304.00
2022-09-29T05:49:58.004Z,316.00
2022-09-29T05:50:58.012Z,328.00
2022-09-29T05:51:58.024Z,336.00
2022-09-29T05:52:58.085Z,344.00
2022-09-29T05:53:57.994Z,356.00
2022-09-29T05:54:58.026Z,368.00
2022-09-29T05:55:57.996Z,384.00
2022-09-29T05:56:57.975Z,400.00
2022-09-29T05:57:57.972Z,412.00
2022-09-29T05:58:58.031Z,424.00
2022-09-29T05:59:57.956Z,432.00
2022-09-29T06:00:58.046Z,444.00
2022-09-29T06:01:58.033Z,452.00
2022-09-29T06:02:58.028Z,468.00
2022-09-29T06:03:57.943Z,472.00
2022-09-29T06:04:58.011Z,480.00
2022-09-29T06:05:57.949Z,488.00
2022-09-29T06:06:58.011Z,500.00
2022-09-29T06:07:57.946Z,516.00
2022-09-29T06:08:57.909Z,532.00
2022-09-29T06:09:57.903Z,544.00
2022-09-29T06:10:57.951Z,556.00
2022-09-29T06:11:57.909Z,576.00
2022-09-29T06:12:57.892Z,592.00
2022-09-29T06:13:57.895Z,600.00
2022-09-29T06:14:57.900Z,608.00
2022-09-29T06:15:57.880Z,616.00
2022-09-29T06:16:57.900Z,624.00
2022-09-29T06:17:57.876Z,636.00
2022-09-29T06:18:57.875Z,652.00
2022-09-29T06:19:57.858Z,660.00
2022-09-29T06:20:57.852Z,680.00
2022-09-29T06:21:57.877Z,704.00
2022-09-29T06:22:57.856Z,720.00
2022-09-29T06:23:57.835Z,736.00
2022-09-29T06:24:57.831Z,752.00
2022-09-29T06:25:57.845Z,764.00
2022-09-29T06:26:57.824Z,776.00
2022-09-29T06:27:57.901Z,780.00
2022-09-29T06:28:57.821Z,772.00
2022-09-29T06:29:57.810Z,748.00
2022-09-29T06:30:57.816Z,736.00
2022-09-29T06:31:57.925Z,764.00
2022-09-29T06:32:57.796Z,780.00
2022-09-29T06:33:57.790Z,792.00
2022-09-29T06:34:58.706Z,796.00
2022-09-29T06:35:57.798Z,796.00
2022-09-29T06:36:57.776Z,796.00
2022-09-29T06:37:57.779Z,812.00
2022-09-29T06:38:57.768Z,832.00
2022-09-29T06:39:57.780Z,860.00
2022-09-29T06:40:57.857Z,884.00
2022-09-29T06:41:57.778Z,916.00
2022-09-29T06:42:57.746Z,928.00
2022-09-29T06:43:57.735Z,944.00
2022-09-29T06:44:57.734Z,964.00
2022-09-29T06:45:57.915Z,972.00
2022-09-29T06:46:57.729Z,984.00
2022-09-29T06:47:57.724Z,992.00
2022-09-29T06:48:57.741Z,1012.00
2022-09-29T06:49:59.212Z,1028.00
2022-09-29T06:51:08.747Z,1032.00
2022-09-29T06:51:57.721Z,1052.00
2022-09-29T06:53:03.992Z,1072.00
2022-09-29T06:54:08.753Z,1080.00
2022-09-29T06:54:57.707Z,1104.00
2022-09-29T06:55:57.706Z,1112.00
2022-09-29T06:56:57.697Z,1108.00
2022-09-29T06:58:01.425Z,1120.00
2022-09-29T06:58:57.662Z,1128.00
2022-09-29T06:59:57.704Z,1144.00
2022-09-29T07:00:57.687Z,1176.00
2022-09-29T07:01:57.791Z,1196.00
2022-09-29T07:02:57.664Z,1212.00
2022-09-29T07:03:57.653Z,1260.00
2022-09-29T07:04:57.640Z,1300.00
2022-09-29T07:06:18.267Z,1328.00
2022-09-29T07:06:57.643Z,1356.00
2022-09-29T07:08:01.049Z,1332.00
2022-09-29T07:08:57.622Z,1280.00
2022-09-29T07:09:57.649Z,1272.00
2022-09-29T07:10:57.610Z,1344.00
2022-09-29T07:11:57.636Z,1400.00
2022-09-29T07:12:57.599Z,1356.00
2022-09-29T07:13:57.611Z,1276.00
2022-09-29T07:14:57.579Z,1256.00
2022-09-29T07:15:57.594Z,1300.00
2022-09-29T07:16:57.585Z,1384.00
2022-09-29T07:17:57.574Z,1360.00
2022-09-29T07:18:57.596Z,1296.00
2022-09-29T07:19:57.562Z,1292.00
2022-09-29T07:20:57.569Z,1288.00
2022-09-29T07:21:57.569Z,1292.00
2022-09-29T07:22:57.567Z,1300.00
2022-09-29T07:24:01.899Z,1396.00
2022-09-29T07:24:57.544Z,1440.00
2022-09-29T07:25:57.543Z,1444.00
2022-09-29T07:26:57.525Z,1424.00
2022-09-29T07:27:57.531Z,1468.00
2022-09-29T07:28:57.530Z,1516.00
2022-09-29T07:30:03.533Z,1548.00
2022-09-29T07:31:07.470Z,1644.00
2022-09-29T07:31:57.545Z,1760.00
2022-09-29T07:33:01.794Z,1812.00
2022-09-29T07:33:57.537Z,1816.00
2022-09-29T07:34:57.543Z,1808.00
2022-09-29T07:35:57.494Z,1776.00
2022-09-29T07:36:57.491Z,1764.00
2022-09-29T07:37:57.481Z,1788.00
2022-09-29T07:38:57.483Z,1792.00
2022-09-29T07:39:57.479Z,1784.00
2022-09-29T07:40:57.522Z,1772.00
2022-09-29T07:41:57.461Z,1744.00
2022-09-29T07:42:57.483Z,1744.00
2022-09-29T07:43:57.447Z,1760.00
2022-09-29T07:44:57.447Z,1800.00
2022-09-29T07:45:57.523Z,1836.00
2022-09-29T07:46:57.445Z,1852.00
2022-09-29T07:47:57.441Z,1848.00
2022-09-29T07:48:57.465Z,1872.00
2022-09-29T07:49:57.434Z,1920.00
2022-09-29T07:50:57.420Z,1912.00
2022-09-29T07:51:57.428Z,1904.00
2022-09-29T07:52:57.411Z,1912.00
2022-09-29T07:53:57.411Z,1944.00
2022-09-29T07:54:57.406Z,1952.00
2022-09-29T07:55:57.393Z,1944.00
2022-09-29T07:56:57.400Z,1960.00
2022-09-29T07:57:57.390Z,2012.00
2022-09-29T07:58:57.391Z,2092.00
2022-09-29T07:59:57.413Z,2152.00
2022-09-29T08:00:57.424Z,2164.00
2022-09-29T08:01:57.454Z,2180.00
2022-09-29T08:02:57.370Z,2200.00
2022-09-29T08:03:57.395Z,2224.00
2022-09-29T08:05:01.419Z,2240.00
2022-09-29T08:05:57.349Z,2248.00
2022-09-29T08:06:57.368Z,2260.00
2022-09-29T08:07:57.365Z,2264.00
2022-09-29T08:09:04.288Z,2296.00
2022-09-29T08:10:03.825Z,2316.00
2022-09-29T08:10:57.330Z,2324.00
2022-09-29T08:12:07.009Z,2336.00
2022-09-29T08:12:57.413Z,2364.00
2022-09-29T08:13:57.327Z,2408.00
2022-09-29T08:14:57.311Z,2436.00
2022-09-29T08:15:57.310Z,2464.00
2022-09-29T08:16:57.332Z,2464.00
2022-09-29T08:17:57.313Z,2508.00
2022-09-29T08:18:57.311Z,2600.00
2022-09-29T08:19:57.300Z,2680.00
2022-09-29T08:20:59.964Z,2780.00
2022-09-29T08:21:57.281Z,2868.00
2022-09-29T08:22:57.277Z,2976.00
2022-09-29T08:23:57.277Z,3076.00
2022-09-29T08:24:57.265Z,3160.00
2022-09-29T08:26:01.709Z,3224.00
2022-09-29T08:26:57.531Z,3312.00
2022-09-29T08:27:57.255Z,3396.00
2022-09-29T08:29:06.971Z,3484.00
2022-09-29T08:29:57.249Z,3580.00
2022-09-29T08:30:59.888Z,3640.00
2022-09-29T08:31:57.286Z,3736.00
2022-09-29T08:32:57.287Z,3864.00
2022-09-29T08:33:57.238Z,4012.00
2022-09-29T08:34:57.229Z,4160.00
2022-09-29T08:35:57.244Z,4320.00
2022-09-29T08:36:57.412Z,4504.00
2022-09-29T08:37:57.220Z,4672.00
2022-09-29T08:38:57.224Z,4824.00
2022-09-29T08:39:57.213Z,4928.00
2022-09-29T08:40:57.282Z,5020.00
2022-09-29T08:41:57.196Z,5096.00
2022-09-29T08:42:57.204Z,5196.00
2022-09-29T08:43:57.197Z,5320.00
2022-09-29T08:45:08.027Z,5452.00
2022-09-29T08:46:00.874Z,5564.00
2022-09-29T08:47:09.180Z,5624.00
2022-09-29T08:47:57.234Z,5620.00
2022-09-29T08:48:58.733Z,5588.00
2022-09-29T08:49:57.192Z,5560.00
2022-09-29T08:50:57.165Z,5572.00
2022-09-29T08:52:04.963Z,5616.00
2022-09-29T08:52:57.247Z,5696.00
2022-09-29T08:54:03.399Z,5736.00
2022-09-29T08:54:57.251Z,5712.00
2022-09-29T08:55:57.155Z,5648.00
2022-09-29T08:56:57.162Z,5552.00
2022-09-29T08:57:57.145Z,5464.00
2022-09-29T08:58:57.137Z,5352.00
2022-09-29T08:59:57.147Z,5276.00
2022-09-29T09:00:57.200Z,5208.00
2022-09-29T09:01:57.198Z,5176.00
2022-09-29T09:02:57.249Z,5216.00
2022-09-29T09:03:57.226Z,5248.00
2022-09-29T09:04:57.124Z,5304.00
2022-09-29T09:05:57.121Z,5440.00
2022-09-29T09:06:57.112Z,5532.00
2022-09-29T09:08:00.459Z,5604.00
2022-09-29T09:08:57.104Z,5692.00
2022-09-29T09:09:57.113Z,5764.00
2022-09-29T09:10:57.105Z,5968.00
2022-09-29T09:11:57.092Z,6208.00
2022-09-29T09:12:57.088Z,6472.00
2022-09-29T09:13:57.142Z,6748.00
2022-09-29T09:14:57.079Z,6920.00
2022-09-29T09:15:57.090Z,6956.00
2022-09-29T09:16:57.133Z,6968.00
2022-09-29T09:17:57.083Z,6972.00
2022-09-29T09:19:57.085Z,6916.00
2022-09-29T09:20:57.082Z,6940.00
2022-09-29T09:21:57.057Z,6976.00
2022-09-29T09:22:57.066Z,7004.00
2022-09-29T09:24:00.120Z,6992.00
2022-09-29T09:24:57.073Z,6968.00
2022-09-29T09:25:57.050Z,6892.00
2022-09-29T09:26:57.158Z,6836.00
2022-09-29T09:27:57.067Z,6792.00
2022-09-29T09:28:57.052Z,6764.00
2022-09-29T09:29:57.050Z,6760.00
2022-09-29T09:30:57.114Z,6804.00
2022-09-29T09:31:57.048Z,6852.00
2022-09-29T09:32:57.033Z,6876.00
2022-09-29T09:34:04.803Z,6944.00
2022-09-29T09:35:00.046Z,7060.00
2022-09-29T09:35:59.203Z,7232.00
2022-09-29T09:37:05.831Z,7428.00
2022-09-29T09:37:57.027Z,7572.00
2022-09-29T09:38:57.017Z,7728.00
2022-09-29T09:39:57.022Z,7888.00
2022-09-29T09:40:57.018Z,8024.00
2022-09-29T09:41:57.030Z,8140.00
2022-09-29T09:42:57.019Z,8232.00
2022-09-29T09:43:57.055Z,8272.00
2022-09-29T09:44:57.007Z,8272.00
2022-09-29T09:45:57.161Z,8072.00
2022-09-29T09:46:57.012Z,7880.00
2022-09-29T09:47:56.997Z,7912.00
2022-09-29T09:48:57.002Z,7948.00
2022-09-29T09:49:57.001Z,7756.00
2022-09-29T09:50:56.992Z,7628.00
2022-09-29T09:51:56.988Z,7128.00
2022-09-29T09:52:56.983Z,7064.00
2022-09-29T09:53:56.989Z,7100.00
2022-09-29T09:54:56.983Z,6672.00
2022-09-29T09:55:56.989Z,6684.00
2022-09-29T09:56:57.009Z,6548.00
2022-09-29T09:57:56.988Z,6376.00
2022-09-29T09:58:56.983Z,6292.00
2022-09-29T09:59:57.553Z,6216.00
2022-09-29T10:00:57.016Z,6116.00
2022-09-29T10:01:57.009Z,6216.00
2022-09-29T10:02:56.970Z,5716.00
2022-09-29T10:03:56.958Z,5512.00
2022-09-29T10:04:56.989Z,5540.00
2022-09-29T10:05:56.960Z,6012.00
2022-09-29T10:06:56.957Z,6016.00
2022-09-29T10:07:56.967Z,6104.00
2022-09-29T10:08:57.016Z,5984.00
2022-09-29T10:09:56.956Z,6044.00
2022-09-29T10:10:59.131Z,5744.00
2022-09-29T10:11:56.944Z,5476.00
2022-09-29T10:12:59.877Z,5508.00
2022-09-29T10:13:56.955Z,5512.00
2022-09-29T10:14:56.949Z,5412.00
2022-09-29T10:15:56.933Z,5180.00
2022-09-29T10:16:57.020Z,5236.00
2022-09-29T10:17:56.934Z,5288.00
2022-09-29T10:18:56.933Z,5660.00
2022-09-29T10:19:56.929Z,5908.00
2022-09-29T10:20:56.939Z,6132.00
2022-09-29T10:21:56.941Z,6396.00
2022-09-29T10:22:56.915Z,6724.00
2022-09-29T10:23:56.949Z,6776.00
2022-09-29T10:24:56.927Z,6900.00
2022-09-29T10:25:56.926Z,6612.00
2022-09-29T10:26:56.915Z,6348.00
2022-09-29T10:27:56.914Z,6368.00
2022-09-29T10:28:56.928Z,6152.00
2022-09-29T10:29:56.912Z,6032.00
2022-09-29T10:30:57.184Z,5772.00
2022-09-29T10:31:56.911Z,5788.00
2022-09-29T10:32:56.903Z,5732.00
2022-09-29T10:33:56.909Z,5836.00
2022-09-29T10:34:56.893Z,5436.00
2022-09-29T10:35:56.898Z,5328.00
2022-09-29T10:36:56.890Z,5216.00
2022-09-29T10:37:56.891Z,5160.00
2022-09-29T10:39:02.287Z,5160.00
2022-09-29T10:39:56.888Z,5300.00
2022-09-29T10:40:56.890Z,5524.00
2022-09-29T10:41:56.886Z,5732.00
2022-09-29T10:42:56.943Z,5356.00
2022-09-29T10:43:56.886Z,5224.00
2022-09-29T10:44:56.884Z,5156.00
2022-09-29T10:45:56.910Z,5572.00
2022-09-29T10:46:56.881Z,6032.00
2022-09-29T10:47:56.867Z,6188.00
2022-09-29T10:48:56.869Z,6256.00
2022-09-29T10:49:56.871Z,5756.00
2022-09-29T10:50:56.903Z,5396.00
2022-09-29T10:51:56.870Z,4996.00
2022-09-29T10:52:56.873Z,4676.00
2022-09-29T10:53:56.868Z,4528.00
2022-09-29T10:54:56.853Z,4444.00
2022-09-29T10:55:56.856Z,4380.00
2022-09-29T10:56:56.855Z,4312.00
2022-09-29T10:57:56.852Z,4208.00
2022-09-29T10:59:01.771Z,4280.00
2022-09-29T10:59:56.874Z,4260.00
2022-09-29T11:00:56.867Z,4204.00
2022-09-29T11:01:56.845Z,4296.00
2022-09-29T11:02:56.849Z,4468.00
2022-09-29T11:03:56.849Z,4512.00
2022-09-29T11:04:56.835Z,4260.00
2022-09-29T11:05:56.841Z,3776.00
2022-09-29T11:06:56.835Z,3244.00
2022-09-29T11:07:56.845Z,2752.00
2022-09-29T11:08:56.861Z,2432.00
2022-09-29T11:09:56.865Z,2224.00
2022-09-29T11:10:56.841Z,2116.00
2022-09-29T11:12:01.444Z,2056.00
2022-09-29T11:12:56.814Z,2044.00
2022-09-29T11:13:56.821Z,2060.00
2022-09-29T11:14:56.814Z,2100.00
2022-09-29T11:15:56.824Z,2156.00
2022-09-29T11:16:56.851Z,2216.00
2022-09-29T11:17:56.817Z,2296.00
2022-09-29T11:18:56.951Z,2364.00
2022-09-29T11:19:56.811Z,2428.00
2022-09-29T11:20:56.861Z,2548.00
2022-09-29T11:21:56.802Z,2708.00
2022-09-29T11:22:56.802Z,2856.00
2022-09-29T11:23:56.806Z,2928.00
2022-09-29T11:24:56.795Z,2992.00
2022-09-29T11:25:56.792Z,3100.00
2022-09-29T11:26:56.796Z,3180.00
2022-09-29T11:27:56.789Z,3224.00
2022-09-29T11:28:56.813Z,3276.00
2022-09-29T11:29:56.819Z,3344.00
2022-09-29T11:30:56.805Z,3392.00
2022-09-29T11:31:56.783Z,3456.00
2022-09-29T11:32:56.778Z,3536.00
2022-09-29T11:33:56.787Z,3600.00
2022-09-29T11:34:56.803Z,3652.00
2022-09-29T11:35:56.770Z,3736.00
2022-09-29T11:36:56.804Z,3784.00
2022-09-29T11:37:56.787Z,3784.00
2022-09-29T11:38:56.796Z,3740.00
2022-09-29T11:39:56.762Z,3652.00
2022-09-29T11:40:56.761Z,3520.00
2022-09-29T11:41:56.771Z,3532.00
2022-09-29T11:42:56.779Z,3264.00
2022-09-29T11:43:56.749Z,3168.00
2022-09-29T11:44:56.744Z,3036.00
2022-09-29T11:45:56.773Z,2928.00
2022-09-29T11:46:56.743Z,2864.00
2022-09-29T11:47:56.747Z,2820.00
2022-09-29T11:48:56.742Z,2792.00
2022-09-29T11:49:56.755Z,2776.00
2022-09-29T11:50:56.834Z,2728.00
2022-09-29T11:51:56.749Z,2664.00
2022-09-29T11:52:56.742Z,2584.00
2022-09-29T11:53:56.746Z,2528.00
2022-09-29T11:54:56.727Z,2480.00
2022-09-29T11:55:56.732Z,2432.00
2022-09-29T11:56:56.716Z,2404.00
2022-09-29T11:57:56.721Z,2408.00
2022-09-29T11:58:56.716Z,2420.00
2022-09-29T11:59:56.729Z,2416.00
2022-09-29T12:00:56.715Z,2412.00
2022-09-29T12:01:56.772Z,2356.00
2022-09-29T12:02:56.810Z,2304.00
2022-09-29T12:03:56.706Z,2232.00
2022-09-29T12:04:56.732Z,2120.00
2022-09-29T12:05:56.708Z,1956.00
2022-09-29T12:06:56.708Z,1884.00
2022-09-29T12:07:56.700Z,1896.00
2022-09-29T12:08:56.708Z,1928.00
2022-09-29T12:09:56.684Z,1936.00
2022-09-29T12:10:56.683Z,1972.00
2022-09-29T12:12:18.790Z,2056.00
2022-09-29T12:12:56.681Z,2216.00
2022-09-29T12:13:56.688Z,2420.00
2022-09-29T12:14:56.684Z,2576.00
2022-09-29T12:15:56.701Z,2620.00
2022-09-29T12:16:56.700Z,2660.00
2022-09-29T12:17:56.686Z,2684.00
2022-09-29T12:18:56.671Z,2756.00
2022-09-29T12:19:56.677Z,3304.00
2022-09-29T12:20:56.658Z,3620.00
2022-09-29T12:21:56.668Z,3416.00
2022-09-29T12:22:56.715Z,3640.00
2022-09-29T12:23:56.663Z,4008.00
2022-09-29T12:24:56.673Z,4180.00
2022-09-29T12:25:56.701Z,4628.00
2022-09-29T12:26:56.649Z,3960.00
2022-09-29T12:27:56.651Z,4084.00
2022-09-29T12:28:56.642Z,4096.00
2022-09-29T12:29:56.650Z,4040.00
2022-09-29T12:30:56.713Z,3940.00
2022-09-29T12:31:56.657Z,3748.00
2022-09-29T12:32:56.662Z,3524.00
2022-09-29T12:33:56.646Z,3368.00
2022-09-29T12:34:56.638Z,3292.00
2022-09-29T12:35:56.651Z,3236.00
2022-09-29T12:36:56.625Z,3168.00
2022-09-29T12:37:56.636Z,3024.00